Time;durP1;ratioP1;P1;durP2;ratioP2;P2;SDS_P1;SDS_P2;PMS_P1;PMS_P2;Temp;Humidity;BMP_temperature;BMP_pressure;BME280_temperature;BME280_humidity;BME280_pressure;Samples;Min_cycle;Max_cycle;Signal;HPM_P1;HPM_P2
2023/04/12 00:01:45;;;;;;;6.47;3.20;;;9.70;99.90;;;;;;4991578;28;20446;-69
2023/04/12 00:04:13;;;;;;;6.20;2.80;;;9.70;99.90;;;;;;4996342;28;20625;-69
2023/04/12 00:06:39;;;;;;;5.97;2.40;;;9.60;99.90;;;;;;4992693;28;20179;-69
2023/04/12 00:09:04;;;;;;;3.40;2.77;;;9.50;99.90;;;;;;5002060;28;20437;-69
2023/04/12 00:11:30;;;;;;;4.10;2.60;;;9.50;99.90;;;;;;4992360;28;20470;-69
2023/04/12 00:13:56;;;;;;;4.23;2.70;;;9.50;99.90;;;;;;4992266;28;20226;-69
2023/04/12 00:16:23;;;;;;;5.97;2.80;;;9.50;99.90;;;;;;4997496;28;20521;-69
2023/04/12 00:18:50;;;;;;;5.47;3.07;;;9.40;99.90;;;;;;4999698;28;20171;-69
2023/04/12 00:21:18;;;;;;;4.77;2.30;;;9.30;99.90;;;;;;5010456;28;20541;-69
2023/04/12 00:23:48;;;;;;;4.57;2.30;;;9.30;99.90;;;;;;4994038;28;20454;-69
2023/04/12 00:26:13;;;;;;;2.60;2.07;;;9.20;99.90;;;;;;4994184;28;20443;-69
2023/04/12 00:28:40;;;;;;;2.83;2.47;;;9.20;99.90;;;;;;4993222;28;21022;-69
2023/04/12 00:31:06;;;;;;;4.70;2.60;;;9.10;99.90;;;;;;4993802;28;20290;-69
2023/04/12 00:33:33;;;;;;;4.10;2.33;;;9.00;99.90;;;;;;4993367;28;20549;-69
2023/04/12 00:35:58;;;;;;;3.20;2.50;;;8.80;99.90;;;;;;4993898;28;20419;-69
2023/04/12 00:38:24;;;;;;;5.50;2.90;;;8.70;99.90;;;;;;4993123;28;20549;-69
2023/04/12 00:40:49;;;;;;;6.60;2.77;;;8.50;99.90;;;;;;4990521;28;20707;-69
2023/04/12 00:43:17;;;;;;;4.70;2.60;;;8.40;99.90;;;;;;4993587;28;20180;-69
2023/04/12 00:45:43;;;;;;;7.23;2.77;;;8.30;99.90;;;;;;4993249;28;20214;-69
2023/04/12 00:48:09;;;;;;;3.60;2.80;;;8.40;99.90;;;;;;4993275;28;20455;-69
2023/04/12 00:50:35;;;;;;;6.17;3.30;;;8.30;99.90;;;;;;4993239;28;21038;-69
2023/04/12 00:53:02;;;;;;;6.77;2.50;;;8.20;99.90;;;;;;4993671;28;20214;-69
2023/04/12 00:55:28;;;;;;;6.53;2.67;;;8.20;99.90;;;;;;4995197;28;20923;-69
2023/04/12 00:57:54;;;;;;;4.93;3.20;;;8.20;99.90;;;;;;4999636;28;20526;-70
2023/04/12 01:00:19;;;;;;;5.37;3.90;;;8.10;99.90;;;;;;4991178;28;20212;-69
2023/04/12 01:02:46;;;;;;;4.23;3.50;;;8.10;99.90;;;;;;4996104;28;20652;-69
2023/04/12 01:05:20;;;;;;;7.93;3.00;;;8.00;99.90;;;;;;4992053;28;20661;-69
2023/04/12 01:08:09;;;;;;;5.40;4.00;;;8.00;99.90;;;;;;4991597;28;21296;-69
2023/04/12 01:10:40;;;;;;;3.97;3.20;;;7.90;99.90;;;;;;4992191;28;20512;-69
2023/04/12 01:13:24;;;;;;;3.43;2.90;;;8.00;99.90;;;;;;4991711;28;20526;-69
2023/04/12 01:15:57;;;;;;;5.43;3.30;;;8.00;99.90;;;;;;4994582;28;20994;-69
2023/04/12 01:18:26;;;;;;;8.23;4.80;;;8.10;99.90;;;;;;4999317;28;20508;-69
2023/04/12 01:21:07;;;;;;;4.00;3.27;;;8.10;99.90;;;;;;4991426;28;20469;-68
2023/04/12 01:23:51;;;;;;;4.67;3.40;;;8.00;99.90;;;;;;4993366;28;20429;-68
2023/04/12 01:26:31;;;;;;;6.40;3.50;;;7.90;99.90;;;;;;4993042;28;20426;-69
2023/04/12 01:28:59;;;;;;;7.37;3.40;;;7.90;99.90;;;;;;4992247;28;20809;-68
2023/04/12 01:31:28;;;;;;;4.80;4.10;;;7.90;99.90;;;;;;4990920;28;20470;-68
2023/04/12 01:33:55;;;;;;;4.50;3.67;;;7.90;99.90;;;;;;4992808;28;20419;-68
2023/04/12 01:36:22;;;;;;;5.53;3.47;;;7.80;99.90;;;;;;4993033;28;20442;-68
2023/04/12 01:38:48;;;;;;;5.73;3.47;;;7.80;99.90;;;;;;4992028;28;20821;-68
2023/04/12 01:41:14;;;;;;;5.33;3.50;;;7.80;99.90;;;;;;4992657;28;20473;-68
2023/04/12 01:43:42;;;;;;;5.80;3.37;;;7.80;99.90;;;;;;4991869;28;20434;-68
2023/04/12 01:46:08;;;;;;;5.40;3.17;;;7.70;99.90;;;;;;4992681;28;20999;-68
2023/04/12 01:48:34;;;;;;;7.67;3.80;;;7.70;99.90;;;;;;4990230;28;20446;-68
2023/04/12 01:51:05;;;;;;;3.37;3.07;;;7.70;99.90;;;;;;4991434;28;20498;-69
2023/04/12 01:53:46;;;;;;;4.50;2.70;;;7.70;99.90;;;;;;4990709;28;20427;-68
2023/04/12 01:56:15;;;;;;;4.77;3.33;;;7.70;99.90;;;;;;4987482;28;20434;-69
2023/04/12 01:58:43;;;;;;;8.20;3.20;;;7.70;99.90;;;;;;4988092;28;20449;-69
2023/04/12 02:01:11;;;;;;;8.53;3.27;;;7.60;99.90;;;;;;4990784;28;20998;-69
2023/04/12 02:03:41;;;;;;;5.70;3.67;;;7.60;99.90;;;;;;4993303;28;20438;-69
2023/04/12 02:06:07;;;;;;;4.00;3.50;;;7.60;99.90;;;;;;4988993;28;20534;-68
2023/04/12 02:08:33;;;;;;;3.70;3.07;;;7.60;99.90;;;;;;4988645;28;20438;-69
2023/04/12 02:10:59;;;;;;;5.63;3.63;;;7.50;99.90;;;;;;4998807;28;20474;-69
2023/04/12 02:13:25;;;;;;;3.40;3.13;;;7.50;99.90;;;;;;4999423;28;20496;-69
2023/04/12 02:15:53;;;;;;;5.73;3.40;;;7.50;99.90;;;;;;4998623;28;20190;-69
2023/04/12 02:18:19;;;;;;;5.70;3.83;;;7.40;99.90;;;;;;4990449;28;20438;-68
2023/04/12 02:20:45;;;;;;;7.83;4.33;;;7.40;99.90;;;;;;4990786;28;20462;-69
2023/04/12 02:23:11;;;;;;;5.07;2.70;;;7.40;99.90;;;;;;4999791;28;21012;-68
2023/04/12 02:25:38;;;;;;;6.93;3.67;;;7.50;99.90;;;;;;4985062;28;20783;-69
2023/04/12 02:28:05;;;;;;;4.97;4.23;;;7.50;99.90;;;;;;4987891;28;21028;-68
2023/04/12 02:30:31;;;;;;;12.63;3.70;;;7.50;99.90;;;;;;4994784;28;20520;-69
2023/04/12 02:32:57;;;;;;;5.50;3.63;;;7.50;99.90;;;;;;4994491;28;20435;-69
2023/04/12 02:35:23;;;;;;;5.00;3.40;;;7.50;99.90;;;;;;5002763;28;20258;-68
2023/04/12 02:37:50;;;;;;;7.40;4.13;;;7.40;99.90;;;;;;4999023;28;20522;-68
2023/04/12 02:40:15;;;;;;;5.43;4.77;;;7.40;99.90;;;;;;4995057;28;20490;-68
2023/04/12 02:42:42;;;;;;;5.00;3.50;;;7.50;99.90;;;;;;5001927;28;20986;-68
2023/04/12 02:45:08;;;;;;;6.57;4.40;;;7.50;99.90;;;;;;4993746;28;20533;-68
2023/04/12 02:47:34;;;;;;;5.73;4.10;;;7.40;99.90;;;;;;4996042;28;20448;-68
2023/04/12 02:49:59;;;;;;;8.30;3.57;;;7.50;99.90;;;;;;4993551;28;20462;-68
2023/04/12 02:52:25;;;;;;;8.23;4.23;;;7.50;99.90;;;;;;4979798;28;20176;-68
2023/04/12 02:54:51;;;;;;;4.00;3.53;;;7.50;99.90;;;;;;4996381;28;20653;-68
2023/04/12 02:57:17;;;;;;;6.83;4.00;;;7.50;99.90;;;;;;4994615;28;20190;-69
2023/04/12 02:59:42;;;;;;;9.13;3.97;;;7.50;99.90;;;;;;4994586;28;20466;-68
2023/04/12 03:02:08;;;;;;;6.53;4.00;;;7.40;99.90;;;;;;4992814;28;20207;-69
2023/04/12 03:04:36;;;;;;;9.67;4.40;;;7.40;99.90;;;;;;4994878;28;20219;-68
2023/04/12 03:07:02;;;;;;;3.53;3.20;;;7.40;99.90;;;;;;4992534;28;20199;-68
2023/04/12 03:09:27;;;;;;;4.60;3.93;;;7.40;99.90;;;;;;4998665;28;21040;-68
2023/04/12 03:11:53;;;;;;;4.90;4.03;;;7.50;99.90;;;;;;5001088;28;20183;-68
2023/04/12 03:14:18;;;;;;;9.57;3.53;;;7.50;99.90;;;;;;4988515;28;20241;-69
2023/04/12 03:16:44;;;;;;;4.93;4.00;;;7.50;99.90;;;;;;4994133;28;20225;-68
2023/04/12 03:19:09;;;;;;;6.33;4.27;;;7.40;99.90;;;;;;4999151;28;20198;-69
2023/04/12 03:21:36;;;;;;;5.03;4.03;;;7.40;99.90;;;;;;4998534;28;20194;-68
2023/04/12 03:24:03;;;;;;;5.87;4.37;;;7.40;99.90;;;;;;4992859;28;20259;-69
2023/04/12 03:26:29;;;;;;;6.90;4.33;;;7.40;99.90;;;;;;4990673;28;20529;-69
2023/04/12 03:28:57;;;;;;;8.23;4.70;;;7.40;99.90;;;;;;4994401;28;20426;-69
2023/04/12 03:31:23;;;;;;;7.53;4.37;;;7.40;99.90;;;;;;4994998;28;20473;-69
2023/04/12 03:33:49;;;;;;;6.07;4.20;;;7.40;99.90;;;;;;4992161;28;20430;-69
2023/04/12 03:36:14;;;;;;;5.90;5.10;;;7.40;99.90;;;;;;4994932;28;20445;-69
2023/04/12 03:38:40;;;;;;;5.93;4.57;;;7.40;99.90;;;;;;4993402;28;20250;-69
2023/04/12 03:41:05;;;;;;;6.70;4.90;;;7.50;99.90;;;;;;5020195;23;20218;-65
2023/04/12 03:43:34;;;;;;;6.27;5.03;;;7.50;99.90;;;;;;5014004;28;20175;-65
2023/04/12 03:46:01;;;;;;;7.03;4.20;;;7.40;99.90;;;;;;5011900;28;20246;-68
2023/04/12 03:48:27;;;;;;;7.77;5.17;;;7.40;99.90;;;;;;5013587;28;20410;-68
2023/04/12 03:50:53;;;;;;;4.90;4.40;;;7.50;99.90;;;;;;5014244;28;20461;-68
2023/04/12 03:53:20;;;;;;;6.83;4.57;;;7.50;99.90;;;;;;5014535;28;20171;-68
2023/04/12 03:55:45;;;;;;;6.20;4.47;;;7.50;99.90;;;;;;5013912;28;20492;-68
2023/04/12 03:58:12;;;;;;;8.60;5.30;;;7.50;99.90;;;;;;5011478;28;20433;-68
2023/04/12 04:00:38;;;;;;;10.20;5.90;;;7.40;99.90;;;;;;5011616;28;20203;-68
2023/04/12 04:03:04;;;;;;;5.97;4.73;;;7.40;99.90;;;;;;5012040;28;21297;-68
2023/04/12 04:05:30;;;;;;;10.57;4.93;;;7.40;99.90;;;;;;5020630;28;20493;-68
2023/04/12 04:07:59;;;;;;;6.93;6.07;;;7.40;99.90;;;;;;5010267;28;20190;-68
2023/04/12 04:10:26;;;;;;;5.50;4.63;;;7.40;99.90;;;;;;5007213;28;20458;-68
2023/04/12 04:12:52;;;;;;;7.37;4.80;;;7.40;99.90;;;;;;5014199;28;20798;-68
2023/04/12 04:15:17;;;;;;;9.00;5.33;;;7.40;99.90;;;;;;5001814;28;20429;-68
2023/04/12 04:17:44;;;;;;;7.03;4.47;;;7.40;99.90;;;;;;5021850;28;20279;-68
2023/04/12 04:20:12;;;;;;;7.20;4.60;;;7.40;99.90;;;;;;5011930;28;20207;-68
2023/04/12 04:22:38;;;;;;;4.77;4.37;;;7.40;99.90;;;;;;5011077;28;20500;-68
2023/04/12 04:25:04;;;;;;;7.03;4.47;;;7.30;99.90;;;;;;5010027;28;20946;-68
2023/04/12 04:27:33;;;;;;;6.03;4.47;;;7.30;99.90;;;;;;5011917;28;20191;-68
2023/04/12 04:30:01;;;;;;;6.80;4.53;;;7.30;99.90;;;;;;5014545;28;20472;-68
2023/04/12 04:32:27;;;;;;;5.53;4.90;;;7.30;99.90;;;;;;5010337;28;20791;-68
2023/04/12 04:34:56;;;;;;;6.03;5.10;;;7.30;99.90;;;;;;5013535;28;20445;-68
2023/04/12 04:37:23;;;;;;;11.27;8.07;;;7.30;99.90;;;;;;5011914;28;20425;-68
2023/04/12 04:39:49;;;;;;;8.70;5.83;;;7.40;99.90;;;;;;5019062;28;20429;-68
2023/04/12 04:42:15;;;;;;;8.20;5.43;;;7.40;99.90;;;;;;5012083;28;20976;-68
2023/04/12 04:44:40;;;;;;;7.60;6.40;;;7.40;99.90;;;;;;5020262;28;20188;-68
2023/04/12 04:47:07;;;;;;;9.03;5.37;;;7.40;99.90;;;;;;5011737;28;20189;-68
2023/04/12 04:49:33;;;;;;;8.27;4.70;;;7.40;99.90;;;;;;5008697;28;20187;-68
2023/04/12 04:51:58;;;;;;;7.70;6.03;;;7.40;99.90;;;;;;5010333;28;20497;-68
2023/04/12 04:54:24;;;;;;;10.60;5.80;;;7.40;99.90;;;;;;5012102;28;20186;-68
2023/04/12 04:56:49;;;;;;;13.47;7.40;;;7.40;99.90;;;;;;5012552;28;20243;-68
2023/04/12 04:59:16;;;;;;;11.80;5.73;;;7.40;99.90;;;;;;5009851;28;20175;-68
2023/04/12 05:01:42;;;;;;;9.33;6.77;;;7.40;99.90;;;;;;5006067;28;20465;-68
2023/04/12 05:04:07;;;;;;;9.80;6.57;;;7.40;99.90;;;;;;5011934;28;20919;-68
2023/04/12 05:06:33;;;;;;;10.57;7.57;;;7.40;99.90;;;;;;5010855;28;20259;-65
2023/04/12 05:09:00;;;;;;;9.50;6.20;;;7.30;99.90;;;;;;5010244;28;20188;-65
2023/04/12 05:11:26;;;;;;;8.73;6.43;;;7.40;99.90;;;;;;5010739;28;20293;-66
2023/04/12 05:13:52;;;;;;;6.50;5.87;;;7.40;99.90;;;;;;5011189;28;20520;-66
2023/04/12 05:16:17;;;;;;;7.90;6.20;;;7.40;99.90;;;;;;5008676;28;20179;-65
2023/04/12 05:18:43;;;;;;;6.43;5.00;;;7.40;99.90;;;;;;5010769;28;20433;-65
2023/04/12 05:21:09;;;;;;;10.97;6.70;;;7.40;99.90;;;;;;5025015;28;20693;-66
2023/04/12 05:23:36;;;;;;;7.43;6.17;;;7.40;99.90;;;;;;5020292;28;20232;-66
2023/04/12 05:26:02;;;;;;;11.53;6.87;;;7.40;99.90;;;;;;5012644;28;20175;-66
2023/04/12 05:28:27;;;;;;;9.90;5.50;;;7.40;99.90;;;;;;5011957;28;20429;-66
2023/04/12 05:30:53;;;;;;;10.10;6.10;;;7.40;99.90;;;;;;5008622;28;20214;-66
2023/04/12 05:33:18;;;;;;;9.47;6.93;;;7.50;99.90;;;;;;5006372;28;20554;-66
2023/04/12 05:35:44;;;;;;;6.47;5.80;;;7.50;99.90;;;;;;5012601;28;20175;-68
2023/04/12 05:38:10;;;;;;;5.97;5.40;;;7.50;99.90;;;;;;5012041;28;20246;-68
2023/04/12 05:40:35;;;;;;;6.20;5.40;;;7.50;99.90;;;;;;5010499;28;20269;-68
2023/04/12 05:43:02;;;;;;;4.97;4.47;;;7.40;99.90;;;;;;5009104;28;20179;-68
2023/04/12 05:45:28;;;;;;;6.87;5.40;;;7.50;99.90;;;;;;5011360;28;20595;-68
2023/04/12 05:47:54;;;;;;;7.20;5.40;;;7.50;99.90;;;;;;5012758;28;20437;-68
2023/04/12 05:50:20;;;;;;;10.53;5.33;;;7.50;99.90;;;;;;5018933;28;20214;-68
2023/04/12 05:52:47;;;;;;;6.63;5.60;;;7.40;99.90;;;;;;5011066;28;20801;-68
2023/04/12 05:55:13;;;;;;;5.53;4.63;;;7.50;99.90;;;;;;5010189;28;20950;-68
2023/04/12 05:57:39;;;;;;;6.60;5.90;;;7.50;99.90;;;;;;5012477;28;20426;-68
2023/04/12 06:00:12;;;;;;;6.53;4.57;;;7.50;99.90;;;;;;5010934;28;20981;-68
2023/04/12 06:02:37;;;;;;;6.90;5.23;;;7.50;99.90;;;;;;5009884;28;20286;-68
2023/04/12 06:05:03;;;;;;;7.20;5.23;;;7.50;99.90;;;;;;5012579;28;20544;-68
2023/04/12 06:07:29;;;;;;;8.80;4.80;;;7.50;99.90;;;;;;5013965;28;20183;-68
2023/04/12 06:09:55;;;;;;;10.23;5.70;;;7.50;99.90;;;;;;5033778;28;20838;-68
2023/04/12 06:12:20;;;;;;;7.37;5.10;;;7.60;99.90;;;;;;5024724;28;20244;-68
2023/04/12 06:14:46;;;;;;;7.83;5.20;;;7.50;99.90;;;;;;5011953;28;20194;-68
2023/04/12 06:17:11;;;;;;;4.90;4.40;;;7.60;99.90;;;;;;5015789;28;20175;-68
2023/04/12 06:19:37;;;;;;;6.47;5.60;;;7.60;99.90;;;;;;5014609;28;20175;-68
2023/04/12 06:22:02;;;;;;;8.70;5.57;;;7.60;99.90;;;;;;5029068;28;20666;-68
2023/04/12 06:24:28;;;;;;;7.50;5.40;;;7.60;99.90;;;;;;5023514;28;20676;-68
2023/04/12 06:26:53;;;;;;;8.87;5.27;;;7.60;99.90;;;;;;5018606;28;20175;-68
2023/04/12 06:29:19;;;;;;;7.30;6.40;;;7.70;99.90;;;;;;5014290;28;20273;-68
2023/04/12 06:31:45;;;;;;;6.83;5.63;;;7.70;99.90;;;;;;5014055;28;20222;-68
2023/04/12 06:34:10;;;;;;;10.43;5.37;;;7.70;99.90;;;;;;5012896;28;20667;-68
2023/04/12 06:36:37;;;;;;;8.83;5.83;;;7.70;99.90;;;;;;5015001;28;20568;-68
2023/04/12 06:39:03;;;;;;;5.60;5.10;;;7.70;99.90;;;;;;5013661;28;20175;-68
2023/04/12 06:41:28;;;;;;;12.07;9.07;;;7.70;99.90;;;;;;5021470;28;20479;-68
2023/04/12 06:43:54;;;;;;;8.70;5.50;;;7.70;99.90;;;;;;5015035;28;20252;-68
2023/04/12 06:46:27;;;;;;;6.80;5.77;;;7.80;99.90;;;;;;5012414;28;20210;-68
2023/04/12 06:48:53;;;;;;;6.20;5.23;;;7.80;99.90;;;;;;5012033;28;20445;-67
2023/04/12 06:51:18;;;;;;;6.23;5.10;;;7.80;99.90;;;;;;5007997;28;20859;-67
2023/04/12 06:53:44;;;;;;;5.63;5.10;;;7.90;99.90;;;;;;5015121;28;20179;-67
2023/04/12 06:56:09;;;;;;;7.83;4.87;;;7.90;99.90;;;;;;5011310;28;20182;-67
2023/04/12 06:58:35;;;;;;;4.20;3.80;;;8.00;99.90;;;;;;5012633;28;20182;-67
2023/04/12 07:01:08;;;;;;;4.87;3.70;;;8.10;99.90;;;;;;5017300;28;20202;-67
2023/04/12 07:03:34;;;;;;;10.13;4.63;;;8.10;99.90;;;;;;5020563;28;20179;-67
2023/04/12 07:06:01;;;;;;;5.27;3.80;;;8.20;99.90;;;;;;5016373;28;20849;-67
2023/04/12 07:08:28;;;;;;;5.07;4.30;;;8.20;99.90;;;;;;5010408;28;20187;-67
2023/04/12 07:10:54;;;;;;;5.93;4.20;;;8.10;99.90;;;;;;5011293;28;20465;-69
2023/04/12 07:13:19;;;;;;;6.60;4.63;;;8.20;99.90;;;;;;5012569;28;20434;-69
2023/04/12 07:15:46;;;;;;;4.47;4.07;;;8.20;99.90;;;;;;5014026;28;20813;-69
2023/04/12 07:18:11;;;;;;;3.50;2.80;;;8.20;99.90;;;;;;5014218;28;20179;-69
2023/04/12 07:20:37;;;;;;;3.97;3.60;;;8.20;99.90;;;;;;5014570;28;20454;-70
2023/04/12 07:23:02;;;;;;;4.67;3.97;;;8.20;99.90;;;;;;5011461;28;20199;-69
2023/04/12 07:25:28;;;;;;;5.70;4.60;;;8.20;99.90;;;;;;5008430;28;20652;-70
2023/04/12 07:27:53;;;;;;;7.07;4.80;;;8.30;99.90;;;;;;5019650;28;20214;-69
2023/04/12 07:30:19;;;;;;;5.07;4.67;;;8.40;99.90;;;;;;5013351;28;20305;-69
2023/04/12 07:32:44;;;;;;;10.87;5.20;;;8.40;99.90;;;;;;5015282;28;20643;-69
2023/04/12 07:35:10;;;;;;;5.33;4.83;;;8.40;99.90;;;;;;5011838;28;20182;-69
2023/04/12 07:37:36;;;;;;;4.40;4.00;;;8.60;99.90;;;;;;5012106;28;20278;-69
2023/04/12 07:40:02;;;;;;;5.80;3.73;;;8.60;99.90;;;;;;5011646;28;20264;-69
2023/04/12 07:42:27;;;;;;;4.60;4.20;;;8.70;99.90;;;;;;5013222;28;20529;-69
2023/04/12 07:44:53;;;;;;;4.27;3.60;;;8.70;99.90;;;;;;5009148;28;20186;-69
2023/04/12 07:47:18;;;;;;;6.40;4.73;;;8.70;99.90;;;;;;5009283;28;20179;-70
2023/04/12 07:49:44;;;;;;;4.27;3.87;;;8.60;99.90;;;;;;5008741;28;20187;-70
2023/04/12 07:52:09;;;;;;;3.83;3.40;;;8.60;99.90;;;;;;5008189;28;20244;-70
2023/04/12 07:54:36;;;;;;;3.80;3.30;;;8.70;99.90;;;;;;5013225;28;20186;-70
2023/04/12 07:57:02;;;;;;;3.40;3.10;;;8.70;99.90;;;;;;5008369;28;20182;-70
2023/04/12 07:59:29;;;;;;;4.37;3.60;;;8.80;99.90;;;;;;5009310;28;20486;-68
2023/04/12 08:01:54;;;;;;;4.40;3.97;;;8.90;99.90;;;;;;5013837;28;20463;-69
2023/04/12 08:04:20;;;;;;;12.13;3.87;;;8.90;99.90;;;;;;5016915;28;20513;-69
2023/04/12 08:06:46;;;;;;;4.60;3.57;;;9.00;99.90;;;;;;5020121;28;20546;-70
2023/04/12 08:09:11;;;;;;;3.80;3.40;;;9.10;99.90;;;;;;5009853;28;20675;-69
2023/04/12 08:11:37;;;;;;;4.07;3.67;;;9.10;99.90;;;;;;5013306;28;20580;-69
2023/04/12 08:14:02;;;;;;;4.70;4.17;;;9.20;99.90;;;;;;5017667;28;20254;-69
2023/04/12 08:16:28;;;;;;;6.87;3.90;;;9.20;99.90;;;;;;5009737;28;20191;-69
2023/04/12 08:18:53;;;;;;;5.13;3.53;;;9.30;99.90;;;;;;5007696;28;20556;-70
2023/04/12 08:21:19;;;;;;;4.50;3.10;;;9.30;99.90;;;;;;5012364;28;20264;-69
2023/04/12 08:23:44;;;;;;;6.93;4.10;;;9.30;99.90;;;;;;5013204;28;20175;-69
2023/04/12 08:26:10;;;;;;;4.80;4.07;;;9.30;99.90;;;;;;5010442;28;21013;-69
2023/04/12 08:28:35;;;;;;;4.13;3.40;;;9.30;99.90;;;;;;5007805;28;20190;-70
2023/04/12 08:31:01;;;;;;;3.80;3.50;;;9.30;99.90;;;;;;5008646;28;20198;-69
2023/04/12 08:33:27;;;;;;;5.43;3.20;;;9.40;99.90;;;;;;4995051;28;20537;-69
2023/04/12 08:35:53;;;;;;;5.23;3.90;;;9.40;99.90;;;;;;5009323;28;20442;-70
2023/04/12 08:38:18;;;;;;;4.73;4.33;;;9.40;99.90;;;;;;5008648;28;20198;-69
2023/04/12 08:40:46;;;;;;;4.40;3.97;;;9.50;99.90;;;;;;5011783;28;20217;-69
2023/04/12 08:43:11;;;;;;;4.90;3.80;;;9.50;99.90;;;;;;5010813;28;20184;-69
2023/04/12 08:45:37;;;;;;;4.13;3.83;;;9.60;99.90;;;;;;5009822;28;20442;-69
2023/04/12 08:48:06;;;;;;;5.50;4.47;;;9.60;99.90;;;;;;5009787;28;20534;-69
2023/04/12 08:50:31;;;;;;;4.70;3.77;;;9.70;99.90;;;;;;5009065;28;20588;-69
2023/04/12 08:52:58;;;;;;;8.07;3.70;;;9.80;99.90;;;;;;5010545;28;20430;-69
2023/04/12 08:55:24;;;;;;;4.70;4.30;;;9.80;99.90;;;;;;5010612;28;20266;-69
2023/04/12 08:57:52;;;;;;;3.70;3.37;;;9.80;99.90;;;;;;5006349;28;20636;-69
2023/04/12 09:00:19;;;;;;;4.77;3.90;;;9.80;99.90;;;;;;5002998;28;20552;-69
2023/04/12 09:02:47;;;;;;;4.00;2.83;;;9.90;99.90;;;;;;5011795;28;20449;-69
2023/04/12 09:05:13;;;;;;;5.10;2.70;;;9.80;99.90;;;;;;5012153;28;20484;-69
2023/04/12 09:07:40;;;;;;;5.53;3.20;;;9.80;99.90;;;;;;5010567;28;20977;-69
2023/04/12 09:10:06;;;;;;;4.17;2.40;;;9.90;99.90;;;;;;5009830;28;20620;-69
2023/04/12 09:12:31;;;;;;;6.00;3.93;;;9.90;99.90;;;;;;5013621;28;20521;-69
2023/04/12 09:15:14;;;;;;;6.00;4.00;;;9.90;99.90;;;;;;5010194;28;20441;-69
2023/04/12 09:17:40;;;;;;;4.70;3.50;;;9.90;99.90;;;;;;5007146;28;20186;-69
2023/04/12 09:20:15;;;;;;;4.33;2.93;;;10.00;99.90;;;;;;5006035;28;20458;-69
2023/04/12 09:22:43;;;;;;;3.53;3.23;;;10.10;99.90;;;;;;5010211;28;20432;-69
2023/04/12 09:25:09;;;;;;;5.73;3.57;;;10.00;99.90;;;;;;5010807;28;20465;-69
2023/04/12 09:27:48;;;;;;;4.00;3.60;;;10.20;99.90;;;;;;5013874;28;20470;-69
2023/04/12 09:30:15;;;;;;;7.13;3.60;;;10.30;99.90;;;;;;5012711;28;20465;-70
2023/04/12 09:32:41;;;;;;;3.53;3.03;;;10.50;99.90;;;;;;5009131;28;20507;-69
2023/04/12 09:35:07;;;;;;;4.50;2.83;;;10.60;99.90;;;;;;5009490;28;20529;-69
2023/04/12 09:37:33;;;;;;;3.70;3.40;;;10.70;99.90;;;;;;5008431;28;20182;-70
2023/04/12 09:40:00;;;;;;;3.97;3.23;;;10.70;99.90;;;;;;5007346;28;20540;-68
2023/04/12 09:42:25;;;;;;;4.73;3.23;;;10.70;99.90;;;;;;5009755;28;20182;-68
2023/04/12 09:44:56;;;;;;;6.07;3.23;;;10.80;99.90;;;;;;5011524;28;20437;-68
2023/04/12 09:47:23;;;;;;;7.23;3.50;;;10.80;99.90;;;;;;5005688;28;20175;-69
2023/04/12 09:49:49;;;;;;;4.23;3.03;;;10.80;99.90;;;;;;5007901;28;20529;-69
2023/04/12 09:52:15;;;;;;;3.80;3.20;;;10.90;99.90;;;;;;5007974;28;21185;-70
2023/04/12 09:54:42;;;;;;;5.50;3.30;;;11.00;99.90;;;;;;5006966;28;20258;-69
2023/04/12 09:57:08;;;;;;;4.90;3.73;;;11.00;99.90;;;;;;5007718;28;20266;-69
2023/04/12 09:59:39;;;;;;;5.73;3.33;;;11.00;99.90;;;;;;5006599;28;20488;-69
2023/04/12 10:02:07;;;;;;;5.40;3.57;;;11.00;99.90;;;;;;5008564;28;20521;-69
2023/04/12 10:04:36;;;;;;;5.70;3.30;;;11.00;99.90;;;;;;5009770;28;20437;-69
2023/04/12 10:07:02;;;;;;;4.90;3.80;;;11.10;99.90;;;;;;5010299;28;20882;-69
2023/04/12 10:09:28;;;;;;;3.40;2.97;;;11.30;99.90;;;;;;5016060;28;20540;-69
2023/04/12 10:11:53;;;;;;;4.03;3.17;;;11.40;99.90;;;;;;5019527;28;20576;-69
2023/04/12 10:14:21;;;;;;;3.57;2.83;;;11.50;99.90;;;;;;5022009;28;20210;-70
2023/04/12 10:16:47;;;;;;;3.53;2.80;;;11.60;99.90;;;;;;5011786;28;20228;-69
2023/04/12 10:19:13;;;;;;;3.43;3.10;;;11.60;99.90;;;;;;5014859;28;20487;-70
2023/04/12 10:21:39;;;;;;;5.40;3.57;;;11.70;99.90;;;;;;5010476;28;20457;-69
2023/04/12 10:24:08;;;;;;;3.50;3.03;;;11.80;99.90;;;;;;5019572;28;20938;-70
2023/04/12 10:26:33;;;;;;;4.57;3.30;;;11.90;99.90;;;;;;4998150;28;20193;-71
2023/04/12 10:29:24;;;;;;;5.50;3.53;;;11.90;99.90;;;;;;5008004;28;20438;-71
2023/04/12 10:31:51;;;;;;;2.70;2.50;;;12.10;99.90;;;;;;5009283;28;20209;-71
2023/04/12 10:34:16;;;;;;;4.20;2.97;;;12.40;99.90;;;;;;5008183;28;20437;-71
2023/04/12 10:36:55;;;;;;;4.00;2.60;;;12.50;99.90;;;;;;5009847;28;20793;-72
2023/04/12 10:39:35;;;;;;;4.87;2.70;;;12.80;99.90;;;;;;5009123;28;20175;-71
2023/04/12 10:42:27;;;;;;;4.20;2.70;;;12.80;99.90;;;;;;5012778;28;20478;-71
2023/04/12 10:45:16;;;;;;;6.23;3.47;;;13.00;99.90;;;;;;5015288;28;20812;-70
2023/04/12 10:47:48;;;;;;;3.80;3.03;;;13.10;99.90;;;;;;5005228;28;20460;-71
2023/04/12 10:50:31;;;;;;;2.60;2.40;;;13.00;99.90;;;;;;5006661;28;20470;-71
2023/04/12 10:53:20;;;;;;;5.60;2.73;;;12.90;99.90;;;;;;5010502;28;20434;-71
2023/04/12 10:55:46;;;;;;;3.73;2.70;;;13.10;99.90;;;;;;5011937;28;20784;-70
2023/04/12 10:58:47;;;;;;;2.80;2.60;;;13.20;99.90;;;;;;5012703;28;20441;-70
2023/04/12 11:01:13;;;;;;;4.00;2.57;;;13.60;99.90;;;;;;5012343;28;20209;-70
2023/04/12 11:04:04;;;;;;;3.80;2.80;;;14.10;99.90;;;;;;5012665;28;20437;-70
2023/04/12 11:06:52;;;;;;;3.83;3.57;;;14.30;99.90;;;;;;5010918;28;20441;-70
2023/04/12 11:09:29;;;;;;;2.73;2.10;;;14.70;99.90;;;;;;5019628;28;20440;-70
2023/04/12 11:12:02;;;;;;;3.30;2.03;;;14.70;99.90;;;;;;5011623;28;20519;-70
2023/04/12 11:14:33;;;;;;;4.03;2.30;;;14.90;99.90;;;;;;5020818;28;20432;-71
2023/04/12 11:17:05;;;;;;;4.00;2.27;;;15.20;99.90;;;;;;5020180;28;20927;-70
2023/04/12 11:19:37;;;;;;;1.80;1.60;;;15.50;99.90;;;;;;5015408;28;20461;-70
2023/04/12 11:22:06;;;;;;;3.10;1.90;;;15.50;99.90;;;;;;5011605;28;20441;-70
2023/04/12 11:24:32;;;;;;;2.60;1.60;;;15.20;99.90;;;;;;5011865;28;20445;-70
2023/04/12 11:26:59;;;;;;;1.70;1.40;;;15.10;99.90;;;;;;5015682;28;20563;-70
2023/04/12 11:29:28;;;;;;;1.60;1.50;;;15.30;99.90;;;;;;5019340;28;20442;-70
2023/04/12 11:31:54;;;;;;;3.73;1.50;;;15.30;99.90;;;;;;5010931;28;21009;-70
2023/04/12 11:34:20;;;;;;;1.73;1.63;;;14.80;99.90;;;;;;5008007;28;20962;-70
2023/04/12 11:36:49;;;;;;;2.50;1.37;;;15.00;99.90;;;;;;5010885;28;20434;-70
2023/04/12 11:39:14;;;;;;;3.03;1.90;;;14.80;99.90;;;;;;5019897;28;20258;-70
2023/04/12 11:41:44;;;;;;;2.13;1.53;;;15.00;99.90;;;;;;5010430;28;20608;-71
2023/04/12 11:44:09;;;;;;;2.53;1.97;;;15.80;99.90;;;;;;5012137;28;20187;-70
2023/04/12 11:46:35;;;;;;;1.57;1.47;;;16.00;99.90;;;;;;5018975;28;20437;-70
2023/04/12 11:49:01;;;;;;;2.83;1.50;;;16.40;99.90;;;;;;5018898;28;20218;-70
2023/04/12 11:51:28;;;;;;;1.73;1.43;;;16.80;99.90;;;;;;5002644;28;20241;-70
2023/04/12 11:53:55;;;;;;;2.50;1.70;;;17.20;99.90;;;;;;5020822;28;20179;-70
2023/04/12 11:56:21;;;;;;;1.77;1.67;;;17.60;99.90;;;;;;5008610;28;20438;-71
2023/04/12 11:58:47;;;;;;;2.57;2.33;;;17.30;99.90;;;;;;5012573;28;20518;-70
2023/04/12 12:01:17;;;;;;;2.47;1.20;;;17.00;99.90;;;;;;5020649;28;21085;-70
2023/04/12 12:03:43;;;;;;;4.10;2.00;;;16.40;99.90;;;;;;5019600;28;20214;-70
2023/04/12 12:06:09;;;;;;;1.63;1.53;;;15.80;99.90;;;;;;5012352;28;20433;-71
2023/04/12 12:08:35;;;;;;;2.17;2.07;;;15.60;99.90;;;;;;5011754;28;20917;-70
2023/04/12 12:11:01;;;;;;;1.23;1.13;;;15.30;99.90;;;;;;5009769;28;20552;-70
2023/04/12 12:13:42;;;;;;;1.70;1.47;;;15.10;99.90;;;;;;5012788;28;20970;-71
2023/04/12 12:16:07;;;;;;;1.37;1.27;;;15.10;99.90;;;;;;5015539;28;20170;-70
2023/04/12 12:18:39;;;;;;;2.07;1.87;;;15.30;99.90;;;;;;5015124;28;20449;-70
2023/04/12 12:21:08;;;;;;;4.23;1.37;;;15.70;99.90;;;;;;5012041;28;20689;-71
2023/04/12 12:23:34;;;;;;;1.30;1.20;;;16.10;99.90;;;;;;5011019;28;20851;-71
2023/04/12 12:26:02;;;;;;;2.03;1.90;;;17.20;99.90;;;;;;5012217;28;20472;-70
2023/04/12 12:28:28;;;;;;;4.60;1.63;;;17.00;99.90;;;;;;5016777;28;20964;-70
2023/04/12 12:30:56;;;;;;;1.50;1.40;;;16.50;99.90;;;;;;5009526;28;20469;-70
2023/04/12 12:33:34;;;;;;;1.70;1.60;;;16.00;99.90;;;;;;5010462;28;20491;-70
2023/04/12 12:36:00;;;;;;;1.43;1.33;;;15.70;99.90;;;;;;5007899;28;20438;-70
2023/04/12 12:38:34;;;;;;;2.63;1.37;;;15.80;99.90;;;;;;5018862;28;20435;-71
2023/04/12 12:41:20;;;;;;;2.70;1.77;;;16.70;99.90;;;;;;5022023;28;20309;-70
2023/04/12 12:43:46;;;;;;;1.83;1.47;;;18.10;99.90;;;;;;5012304;28;20435;-71
2023/04/12 12:46:12;;;;;;;2.10;1.70;;;20.10;99.90;;;;;;5016064;28;20436;-71
2023/04/12 12:48:42;;;;;;;1.60;1.20;;;19.90;99.90;;;;;;5020824;28;20439;-70
2023/04/12 12:51:08;;;;;;;1.63;1.37;;;19.10;99.90;;;;;;5009598;28;20206;-71
2023/04/12 12:53:38;;;;;;;2.43;1.67;;;18.60;99.90;;;;;;5011864;28;20525;-71
2023/04/12 12:56:05;;;;;;;1.47;1.37;;;17.90;99.90;;;;;;5009794;28;20429;-71